METAR AND TAF INFORMATION
METAR FOR EDDP
ADDS - METARS form results

(0540 UTC 09 May 2021)
Data provider http://aviationweather.gov/metar/data/
 
METAR text: EDDP 090520Z 17012KT CAVOK 11/05 Q1011 NOSIG
Conditions at: EDDP (LEIPZIG/SCHKEUDI, DE) observed 0520 UTC 09 May 2021
Temperature: 11.0°C (52°F)
Dewpoint: 5.0°C (41°F) [RH = 66%]
Pressure (altimeter): 29.85 inches Hg (1011.0 mb)
Winds: from the S (170 degrees) at 14 MPH (12 knots; 6.2 m/s)
Visibility: 6 or more miles (10+ km)
Ceiling: ceiling and visibility are OK
Clouds: unknown
Weather: no significant weather observed at this time

METAR text: EDDP 090450Z 17011KT CAVOK 10/04 Q1011 NOSIG
Conditions at: EDDP (LEIPZIG/SCHKEUDI, DE) observed 0450 UTC 09 May 2021
Temperature: 10.0°C (50°F)
Dewpoint: 4.0°C (39°F) [RH = 66%]
Pressure (altimeter): 29.85 inches Hg (1011.0 mb)
Winds: from the S (170 degrees) at 13 MPH (11 knots; 5.7 m/s)
Visibility: 6 or more miles (10+ km)
Ceiling: ceiling and visibility are OK
Clouds: unknown
Weather: no significant weather observed at this time

Forecast for: EDDP (LEIPZIG/SCHKEUDI, DE)
Text: TAF EDDP 090500Z 0906/1006 17010KT CAVOK
Forecast period: 0600 UTC 09 May 2021 to 0600 UTC 10 May 2021
Forecast type: FROM: standard forecast or significant change
Winds: from the S (170 degrees) at 12 MPH (10 knots; 5.1 m/s)
Visibility: 6 or more miles (10+ km)
Ceiling: unknown
Clouds: missing
Weather: NSW  (no significant weather)
Text: PROB30
Forecast period: 0900 to 1600 UTC 09 May 2021
Forecast type: TEMPORARY: The following changes expected for less than half the time period
Winds: from the SSW (200 degrees) at 17 MPH (15 knots; 7.7 m/s)
gusting to 29 MPH (25 knots; 12.9 m/s)
Visibility: missing
Ceiling: unknown
Clouds: missing
Weather: no significant weather forecast for this period

 AIRPORT MAP

 RUNWAY INFORMATION
Runway 08L Runway length 11811 ft Runway width 148 ft
Runway elevation 418 ft Runway displaced threshold 0 ft Runway heading 86
Runway 26R Runway length 11811 ft Runway width 148 ft
Runway elevation 448 ft Runway displaced threshold 0 ft Runway heading 266
Runway 08R Runway length 11811 ft Runway width 198 ft
Runway elevation 0 ft Runway displaced threshold 0 ft Runway heading 86
Runway 26L Runway length 11811 ft Runway width 198 ft
Runway elevation 0 ft Runway displaced threshold 0 ft Runway heading 266

 AIRPORT FREQUENCIES
Type APP Name MUNCHEN RA Frequency 124.175 MHZ
Type ATIS Name ATIS Frequency 123.95 MHZ
Type GND Name GND Frequency 121.8 MHZ
Type INFO Name MUNCHEN IN Frequency 125.8 MHZ
Type TWR Name TWR Frequency 121.1 MHZ

 AIRPORT NEAR NAVIGATION AIDS
Type DME Name Leipzig South Frequency 112150 KHZ
Type VOR-DME Name Leipzig Frequency 115850 KHZ
Type DME Name Leipzig North Frequency 113500 KHZ
Type NDB Name Leipzig Frequency 357 KHZ
Type NDB Name Leipzig Frequency 434 KHZ
Type NDB Name Leipzig Frequency 340 KHZ



Datenschutz / Privacy Policy • Impressum / Imprint • Disclaimer

Powered by Virtual Airlines Manager [v2.6.2]